createdAt,value
2019-02-23T00:00:03.489Z,61.22
2019-02-23T00:01:03.257Z,61.51
2019-02-23T00:02:03.555Z,61.57
2019-02-23T00:03:03.552Z,61.57
2019-02-23T00:04:03.318Z,61.76
2019-02-23T00:05:03.597Z,61.38
2019-02-23T00:06:03.619Z,61.95
2019-02-23T00:07:03.378Z,61.95
2019-02-23T00:08:03.401Z,61.95
2019-02-23T00:09:03.426Z,61.57
2019-02-23T00:10:03.444Z,61.85
2019-02-23T00:11:03.463Z,61.38
2019-02-23T00:12:04.595Z,61.47
2019-02-23T00:13:03.508Z,61.47
2019-02-23T00:14:03.786Z,61.76
2019-02-23T00:15:03.807Z,62.14
2019-02-23T00:16:03.842Z,62.24
2019-02-23T00:17:03.854Z,62.24
2019-02-23T00:18:03.876Z,62.24
2019-02-23T00:19:03.939Z,61.76
2019-02-23T00:20:03.914Z,61.82
2019-02-23T00:21:03.678Z,61.95
2019-02-23T00:22:03.699Z,62.59
2019-02-23T00:23:03.719Z,62.49
2019-02-23T00:24:03.741Z,62.49
2019-02-23T00:25:04.019Z,62.3
2019-02-23T00:26:04.042Z,62.78
2019-02-23T00:27:04.073Z,62.87
2019-02-23T00:28:04.083Z,62.68
2019-02-23T00:29:04.103Z,62.87
2019-02-23T00:30:03.869Z,62.68
2019-02-23T00:31:03.895Z,62.78
2019-02-23T00:32:03.907Z,62.78
2019-02-23T00:33:03.928Z,62.59
2019-02-23T00:34:04.208Z,63.07
2019-02-23T00:35:04.237Z,62.97
2019-02-23T00:36:03.994Z,62.87
2019-02-23T00:37:04.022Z,62.97
2019-02-23T00:38:04.032Z,62.78
2019-02-23T00:39:04.317Z,62.78
2019-02-23T00:40:04.337Z,62.78
2019-02-23T00:41:04.096Z,63.16
2019-02-23T00:42:04.379Z,63.23
2019-02-23T00:43:04.397Z,62.94
2019-02-23T00:44:04.419Z,63.42
2019-02-23T00:45:04.184Z,63.51
2019-02-23T00:46:04.458Z,63.13
2019-02-23T00:47:04.220Z,63.42
2019-02-23T00:48:04.242Z,63.89
2019-02-23T00:49:04.266Z,63.7
2019-02-23T00:50:04.283Z,63.6
2019-02-23T00:51:04.561Z,63.7
2019-02-23T00:52:04.652Z,63.42
2019-02-23T00:53:04.607Z,63.6
2019-02-23T00:54:04.366Z,63.6
2019-02-23T00:55:04.651Z,63.6
2019-02-23T00:56:04.407Z,63.89
2019-02-23T00:57:04.688Z,63.8
2019-02-23T00:58:04.449Z,64.18
2019-02-23T00:59:04.734Z,64.09
2019-02-23T01:00:04.508Z,63.8
2019-02-23T01:01:04.770Z,63.99
2019-02-23T01:02:04.797Z,64.18
2019-02-23T01:03:04.560Z,64.15
2019-02-23T01:04:04.575Z,64.15
2019-02-23T01:05:04.591Z,64.25
2019-02-23T01:06:04.871Z,64.25
2019-02-23T01:07:04.639Z,63.96
2019-02-23T01:08:04.654Z,63.96
2019-02-23T01:09:04.934Z,63.86
2019-02-23T01:10:04.952Z,64.43
2019-02-23T01:11:04.717Z,64.53
2019-02-23T01:12:05.079Z,64.43
2019-02-23T01:13:05.018Z,64.53
2019-02-23T01:14:04.780Z,64.25
2019-02-23T01:15:04.822Z,64.34
2019-02-23T01:16:04.818Z,64.25
2019-02-23T01:17:05.098Z,64.53
2019-02-23T01:18:04.861Z,64.62
2019-02-23T01:19:04.879Z,64.72
2019-02-23T01:20:04.900Z,64.81
2019-02-23T01:21:04.923Z,64.43
2019-02-23T01:22:05.200Z,64.72
2019-02-23T01:23:05.219Z,64.59
2019-02-23T01:24:05.243Z,64.69
2019-02-23T01:25:05.260Z,64.69
2019-02-23T01:26:05.030Z,64.59
2019-02-23T01:27:05.347Z,64.69
2019-02-23T01:28:05.320Z,64.59
2019-02-23T01:29:05.088Z,64.59
2019-02-23T01:30:05.107Z,64.4
2019-02-23T01:31:05.121Z,64.31
2019-02-23T01:32:05.144Z,64.4
2019-02-23T01:33:05.170Z,64.5
2019-02-23T01:34:05.463Z,64.31
2019-02-23T01:35:05.203Z,64.4
2019-02-23T01:36:05.482Z,64.4
2019-02-23T01:37:05.506Z,64.69
2019-02-23T01:38:05.265Z,64.69
2019-02-23T01:39:05.285Z,64.59
2019-02-23T01:40:05.302Z,64.5
2019-02-23T01:41:05.584Z,64.97
2019-02-23T01:42:05.606Z,65.07
2019-02-23T01:43:05.620Z,64.94
2019-02-23T01:44:05.648Z,65.07
2019-02-23T01:45:05.402Z,65.07
2019-02-23T01:46:05.680Z,64.47
2019-02-23T01:47:05.705Z,64.37
2019-02-23T01:48:05.720Z,65.13
2019-02-23T01:49:05.486Z,64.94
2019-02-23T01:50:05.761Z,65.04
2019-02-23T01:51:05.786Z,64.85
2019-02-23T01:52:05.541Z,64.85
2019-02-23T01:53:05.820Z,64.85
2019-02-23T01:54:05.849Z,64.75
2019-02-23T01:55:05.604Z,65.23
2019-02-23T01:56:05.623Z,64.94
2019-02-23T01:57:05.903Z,64.94
2019-02-23T01:58:05.661Z,65.04
2019-02-23T01:59:05.940Z,65.04
2019-02-23T02:00:05.702Z,65.04
2019-02-23T02:01:05.722Z,64.94
2019-02-23T02:02:06.013Z,65.04
2019-02-23T02:03:05.767Z,64.85
2019-02-23T02:04:06.044Z,65.04
2019-02-23T02:05:05.806Z,65.33
2019-02-23T02:06:06.080Z,65.23
2019-02-23T02:07:05.841Z,65.23
2019-02-23T02:08:06.117Z,64.65
2019-02-23T02:09:05.881Z,65.13
2019-02-23T02:10:05.899Z,65.04
2019-02-23T02:11:05.920Z,65.13
2019-02-23T02:12:06.200Z,65.04
2019-02-23T02:13:05.959Z,65
2019-02-23T02:14:06.237Z,65
2019-02-23T02:15:06.001Z,65
2019-02-23T02:16:06.278Z,65
2019-02-23T02:17:06.038Z,65.58
2019-02-23T02:18:06.088Z,65.1
2019-02-23T02:19:06.335Z,65.58
2019-02-23T02:20:13.529Z,65.2
2019-02-23T02:21:06.377Z,65.29
2019-02-23T02:22:06.397Z,65.29
2019-02-23T02:23:06.161Z,65.29
2019-02-23T02:24:06.434Z,65.1
2019-02-23T02:25:06.196Z,65.2
2019-02-23T02:26:06.214Z,65.2
2019-02-23T02:27:06.495Z,65.48
2019-02-23T02:28:06.254Z,65.29
2019-02-23T02:29:06.269Z,65.48
2019-02-23T02:30:06.556Z,65.29
2019-02-23T02:31:06.568Z,65.39
2019-02-23T02:32:06.598Z,65.39
2019-02-23T02:33:06.351Z,65.48
2019-02-23T02:34:06.371Z,65.2
2019-02-23T02:35:06.389Z,65.2
2019-02-23T02:36:06.410Z,65
2019-02-23T02:37:06.844Z,65.48
2019-02-23T02:38:06.704Z,65.29
2019-02-23T02:39:06.476Z,65.39
2019-02-23T02:40:06.748Z,65.39
2019-02-23T02:41:06.503Z,65.58
2019-02-23T02:42:06.523Z,65.48
2019-02-23T02:43:06.808Z,65.48
2019-02-23T02:44:06.821Z,65.29
2019-02-23T02:45:06.842Z,65.2
2019-02-23T02:46:06.603Z,65.48
2019-02-23T02:47:06.619Z,65.39
2019-02-23T02:48:06.645Z,65.58
2019-02-23T02:49:06.955Z,65.26
2019-02-23T02:50:06.680Z,65.45
2019-02-23T02:51:06.959Z,65.26
2019-02-23T02:52:06.721Z,65.29
2019-02-23T02:53:06.736Z,65.58
2019-02-23T02:54:06.759Z,65.26
2019-02-23T02:55:06.779Z,65.26
2019-02-23T02:56:06.794Z,65.36
2019-02-23T02:57:06.818Z,65.45
2019-02-23T02:58:06.835Z,65.45
2019-02-23T02:59:06.856Z,65.26
2019-02-23T03:00:06.872Z,65.55
2019-02-23T03:01:06.892Z,65.16
2019-02-23T03:02:06.912Z,64.97
2019-02-23T03:03:06.932Z,64.97
2019-02-23T03:04:07.285Z,65.26
2019-02-23T03:05:07.231Z,65.55
2019-02-23T03:06:06.990Z,65.36
2019-02-23T03:07:07.012Z,64.97
2019-02-23T03:08:07.026Z,65.45
2019-02-23T03:09:07.043Z,65.45
2019-02-23T03:10:07.065Z,65.07
2019-02-23T03:11:07.341Z,65.36
2019-02-23T03:12:07.362Z,64.97
2019-02-23T03:13:07.388Z,64.97
2019-02-23T03:14:07.401Z,65.16
2019-02-23T03:15:07.315Z,65.45
2019-02-23T03:16:07.450Z,65.16
2019-02-23T03:17:07.198Z,65.36
2019-02-23T03:18:07.221Z,65.16
2019-02-23T03:19:07.236Z,65.07
2019-02-23T03:20:07.520Z,65.36
2019-02-23T03:21:07.557Z,65.26
2019-02-23T03:22:07.553Z,65.07
2019-02-23T03:23:07.314Z,65.16
2019-02-23T03:24:07.332Z,65.16
2019-02-23T03:25:07.360Z,65.42
2019-02-23T03:26:07.628Z,65.23
2019-02-23T03:27:07.655Z,65.16
2019-02-23T03:28:07.685Z,65.03
2019-02-23T03:29:07.425Z,65.36
2019-02-23T03:30:07.444Z,65.32
2019-02-23T03:31:07.739Z,65.42
2019-02-23T03:32:07.485Z,65.51
2019-02-23T03:33:07.514Z,65.13
2019-02-23T03:34:07.537Z,65.51
2019-02-23T03:35:07.798Z,65.42
2019-02-23T03:36:07.560Z,65.23
2019-02-23T03:37:07.577Z,65.23
2019-02-23T03:38:07.593Z,65.23
2019-02-23T03:39:07.874Z,65.32
2019-02-23T03:40:07.634Z,65.23
2019-02-23T03:41:07.926Z,65.13
2019-02-23T03:42:07.671Z,65.42
2019-02-23T03:43:07.693Z,65.42
2019-02-23T03:44:07.976Z,65.51
2019-02-23T03:45:07.734Z,65.32
2019-02-23T03:46:07.746Z,65.32
2019-02-23T03:47:08.028Z,65.42
2019-02-23T03:48:07.784Z,65.23
2019-02-23T03:49:08.065Z,65.42
2019-02-23T03:50:07.820Z,65.51
2019-02-23T03:51:07.844Z,65.42
2019-02-23T03:52:08.131Z,65.23
2019-02-23T03:53:07.877Z,65.42
2019-02-23T03:54:08.157Z,65.23
2019-02-23T03:55:08.191Z,65.13
2019-02-23T03:56:07.941Z,65.13
2019-02-23T03:57:07.952Z,65.23
2019-02-23T03:58:08.232Z,65.13
2019-02-23T03:59:07.992Z,65.23
2019-02-23T04:00:08.268Z,65.42
2019-02-23T04:01:08.288Z,65.03
2019-02-23T04:02:08.047Z,65.32
2019-02-23T04:03:08.074Z,65.42
2019-02-23T04:04:08.341Z,65.23
2019-02-23T04:05:08.118Z,65.13
2019-02-23T04:06:08.386Z,64.94
2019-02-23T04:07:08.149Z,65.23
2019-02-23T04:08:08.160Z,65.19
2019-02-23T04:09:08.177Z,65.19
2019-02-23T04:10:08.456Z,65.1
2019-02-23T04:11:08.474Z,65.1
2019-02-23T04:12:08.234Z,65.19
2019-02-23T04:13:08.263Z,65.19
2019-02-23T04:14:08.273Z,65.1
2019-02-23T04:15:08.551Z,64.9
2019-02-23T04:16:08.570Z,64.9
2019-02-23T04:17:08.327Z,65
2019-02-23T04:18:08.604Z,65.19
2019-02-23T04:19:08.377Z,65.1
2019-02-23T04:20:08.417Z,65.19
2019-02-23T04:21:08.661Z,65.29
2019-02-23T04:22:08.491Z,65.19
2019-02-23T04:23:08.439Z,65.19
2019-02-23T04:24:08.723Z,65
2019-02-23T04:25:08.484Z,65.38
2019-02-23T04:26:08.493Z,65.19
2019-02-23T04:27:08.782Z,65.19
2019-02-23T04:28:08.532Z,65.19
2019-02-23T04:29:08.557Z,64.9
2019-02-23T04:30:08.828Z,65.1
2019-02-23T04:31:08.851Z,65.1
2019-02-23T04:32:08.609Z,65
2019-02-23T04:33:08.627Z,64.9
2019-02-23T04:34:08.648Z,65.1
2019-02-23T04:35:08.921Z,64.9
2019-02-23T04:36:08.681Z,65.1
2019-02-23T04:37:08.702Z,65.1
2019-02-23T04:38:08.977Z,65.1
2019-02-23T04:39:08.998Z,64.9
2019-02-23T04:40:08.754Z,65.1
2019-02-23T04:41:08.771Z,65.29
2019-02-23T04:42:08.791Z,65.29
2019-02-23T04:43:08.807Z,65.19
2019-02-23T04:44:09.085Z,65.38
2019-02-23T04:45:09.104Z,65.19
2019-02-23T04:46:08.866Z,65.48
2019-02-23T04:47:08.889Z,65.1
2019-02-23T04:48:08.903Z,65.38
2019-02-23T04:49:08.924Z,65.38
2019-02-23T04:50:09.020Z,65.1
2019-02-23T04:51:16.583Z,65.19
2019-02-23T04:52:09.232Z,65.48
2019-02-23T04:53:09.252Z,65.16
2019-02-23T04:54:09.269Z,65.35
2019-02-23T04:55:09.029Z,65.29
2019-02-23T04:56:09.313Z,65.19
2019-02-23T04:57:09.326Z,65.38
2019-02-23T04:58:09.086Z,65.29
2019-02-23T04:59:09.103Z,65.29
2019-02-23T05:00:09.382Z,65.19
2019-02-23T05:01:09.399Z,65.25
2019-02-23T05:02:09.157Z,65.35
2019-02-23T05:03:09.176Z,64.87
2019-02-23T05:04:09.451Z,65.16
2019-02-23T05:05:09.216Z,65.35
2019-02-23T05:06:09.488Z,65.06
2019-02-23T05:07:09.503Z,65.16
2019-02-23T05:08:09.270Z,65.06
2019-02-23T05:09:09.287Z,65.35
2019-02-23T05:10:09.314Z,65.06
2019-02-23T05:11:09.584Z,65.35
2019-02-23T05:12:09.344Z,65.25
2019-02-23T05:13:09.363Z,65.25
2019-02-23T05:14:09.377Z,65.35
2019-02-23T05:15:09.392Z,65.16
2019-02-23T05:16:09.421Z,65.06
2019-02-23T05:17:09.694Z,65.16
2019-02-23T05:18:09.706Z,65.16
2019-02-23T05:19:09.727Z,65.06
2019-02-23T05:20:09.488Z,65.35
2019-02-23T05:21:09.504Z,65.06
2019-02-23T05:22:09.522Z,64.97
2019-02-23T05:23:09.537Z,65.35
2019-02-23T05:24:09.815Z,65.06
2019-02-23T05:25:09.832Z,65.54
2019-02-23T05:26:09.597Z,65.25
2019-02-23T05:27:09.612Z,64.87
2019-02-23T05:28:09.898Z,65.16
2019-02-23T05:29:09.645Z,65.16
2019-02-23T05:30:09.931Z,65.25
2019-02-23T05:31:09.941Z,65.35
2019-02-23T05:32:09.699Z,65.06
2019-02-23T05:33:09.724Z,65.16
2019-02-23T05:34:09.995Z,65.06
2019-02-23T05:35:10.018Z,65.45
2019-02-23T05:36:09.780Z,65.16
2019-02-23T05:37:09.787Z,65.25
2019-02-23T05:38:10.068Z,65.16
2019-02-23T05:39:09.826Z,65.16
2019-02-23T05:40:09.849Z,65.35
2019-02-23T05:41:09.864Z,65.35
2019-02-23T05:42:10.135Z,64.87
2019-02-23T05:43:09.901Z,64.87
2019-02-23T05:44:09.917Z,64.97
2019-02-23T05:45:10.193Z,65.25
2019-02-23T05:46:09.951Z,64.97
2019-02-23T05:47:10.229Z,64.97
2019-02-23T05:48:09.991Z,65.06
2019-02-23T05:49:10.101Z,65.06
2019-02-23T05:50:10.394Z,65.03
2019-02-23T05:51:10.048Z,65.06
2019-02-23T05:52:10.059Z,65.06
2019-02-23T05:53:10.334Z,65.06
2019-02-23T05:54:10.102Z,65.16
2019-02-23T05:55:10.126Z,65.03
2019-02-23T05:56:13.801Z,65.03
2019-02-23T05:57:10.147Z,65.13
2019-02-23T05:58:10.423Z,64.87
2019-02-23T05:59:10.184Z,64.94
2019-02-23T06:00:10.463Z,65.13
2019-02-23T06:01:10.222Z,65.03
2019-02-23T06:02:10.494Z,65.22
2019-02-23T06:03:10.255Z,64.84
2019-02-23T06:04:10.273Z,65.03
2019-02-23T06:05:10.289Z,65.22
2019-02-23T06:06:10.313Z,65.22
2019-02-23T06:07:10.589Z,65.22
2019-02-23T06:08:10.343Z,65.13
2019-02-23T06:09:10.618Z,65.03
2019-02-23T06:10:10.644Z,65.13
2019-02-23T06:11:10.668Z,65.13
2019-02-23T06:12:10.675Z,65.22
2019-02-23T06:13:10.694Z,65.13
2019-02-23T06:14:10.788Z,64.84
2019-02-23T06:15:10.471Z,65.13
2019-02-23T06:16:10.753Z,65.32
2019-02-23T06:17:10.507Z,65.22
2019-02-23T06:18:10.781Z,65.13
2019-02-23T06:19:10.796Z,65.03
2019-02-23T06:20:10.823Z,65.03
2019-02-23T06:21:10.573Z,64.94
2019-02-23T06:22:10.855Z,64.84
2019-02-23T06:23:10.874Z,65.32
2019-02-23T06:24:10.638Z,65.13
2019-02-23T06:25:10.957Z,65.22
2019-02-23T06:26:10.920Z,65.22
2019-02-23T06:27:10.682Z,65.32
2019-02-23T06:28:10.956Z,65.13
2019-02-23T06:29:10.716Z,65.13
2019-02-23T06:30:10.737Z,65.22
2019-02-23T06:31:11.007Z,65.22
2019-02-23T06:32:10.767Z,64.84
2019-02-23T06:33:11.044Z,65.13
2019-02-23T06:34:18.620Z,65.03
2019-02-23T06:35:11.092Z,65.03
2019-02-23T06:36:11.163Z,65.13
2019-02-23T06:37:10.856Z,65.32
2019-02-23T06:38:10.882Z,65.13
2019-02-23T06:39:11.148Z,65.13
2019-02-23T06:40:10.912Z,65.03
2019-02-23T06:41:10.929Z,65.03
2019-02-23T06:42:11.203Z,65.13
2019-02-23T06:43:10.980Z,65.03
2019-02-23T06:44:11.241Z,64.84
2019-02-23T06:45:10.998Z,65.13
2019-02-23T06:46:11.270Z,65.03
2019-02-23T06:47:11.032Z,65.03
2019-02-23T06:48:11.055Z,65.13
2019-02-23T06:49:11.071Z,65.13
2019-02-23T06:50:11.086Z,65.03
2019-02-23T06:51:11.102Z,64.94
2019-02-23T06:52:11.119Z,65.03
2019-02-23T06:53:11.144Z,65.13
2019-02-23T06:54:11.155Z,65.13
2019-02-23T06:55:11.182Z,65.22
2019-02-23T06:56:11.449Z,65.32
2019-02-23T06:57:11.462Z,64.84
2019-02-23T06:58:11.487Z,64.94
2019-02-23T06:59:11.240Z,64.84
2019-02-23T07:00:11.261Z,64.94
2019-02-23T07:01:11.539Z,64.84
2019-02-23T07:02:11.300Z,65.13
2019-02-23T07:03:11.575Z,64.84
2019-02-23T07:04:11.333Z,64.84
2019-02-23T07:05:11.623Z,64.84
2019-02-23T07:06:11.626Z,64.84
2019-02-23T07:07:11.383Z,65.03
2019-02-23T07:08:11.403Z,65.03
2019-02-23T07:09:11.418Z,65.13
2019-02-23T07:10:11.691Z,65.03
2019-02-23T07:11:11.451Z,64.75
2019-02-23T07:12:11.473Z,64.75
2019-02-23T07:13:11.745Z,64.75
2019-02-23T07:14:11.766Z,64.65
2019-02-23T07:15:11.521Z,64.84
2019-02-23T07:16:11.800Z,64.75
2019-02-23T07:17:11.827Z,64.75
2019-02-23T07:18:11.574Z,64.84
2019-02-23T07:19:11.592Z,64.37
2019-02-23T07:20:11.868Z,64.46
2019-02-23T07:21:11.627Z,64.37
2019-02-23T07:22:17.965Z,64.27
2019-02-23T07:23:11.660Z,64.18
2019-02-23T07:24:11.681Z,64.65
2019-02-23T07:25:11.960Z,64.08
2019-02-23T07:26:11.974Z,64.37
2019-02-23T07:27:11.735Z,64.27
2019-02-23T07:28:13.424Z,64.27
2019-02-23T07:29:11.867Z,64.08
2019-02-23T07:30:12.048Z,64.18
2019-02-23T07:31:12.059Z,64.37
2019-02-23T07:32:12.079Z,64.27
2019-02-23T07:33:11.838Z,64.56
2019-02-23T07:34:12.122Z,64.37
2019-02-23T07:35:11.876Z,64.46
2019-02-23T07:36:12.149Z,64.37
2019-02-23T07:37:11.918Z,64.46
2019-02-23T07:38:11.936Z,64.37
2019-02-23T07:39:12.202Z,64.37
2019-02-23T07:40:12.226Z,64.27
2019-02-23T07:41:11.981Z,64.37
2019-02-23T07:42:12.256Z,64.56
2019-02-23T07:43:12.015Z,64.37
2019-02-23T07:44:12.343Z,64.46
2019-02-23T07:45:12.310Z,64.27
2019-02-23T07:46:12.070Z,64.18
2019-02-23T07:47:12.087Z,64.46
2019-02-23T07:48:12.106Z,64.27
2019-02-23T07:49:12.124Z,64.27
2019-02-23T07:50:12.395Z,64.37
2019-02-23T07:51:12.158Z,64.37
2019-02-23T07:52:12.175Z,64.08
2019-02-23T07:53:12.192Z,64.37
2019-02-23T07:54:12.469Z,63.99
2019-02-23T07:55:12.281Z,64.27
2019-02-23T07:56:12.246Z,64.08
2019-02-23T07:57:12.264Z,64.18
2019-02-23T07:58:12.278Z,64.18
2019-02-23T07:59:12.299Z,64.18
2019-02-23T08:00:12.585Z,64.27
2019-02-23T08:01:12.336Z,64.08
2019-02-23T08:02:12.612Z,64.18
2019-02-23T08:03:12.369Z,64.27
2019-02-23T08:04:12.647Z,64.18
2019-02-23T08:05:12.441Z,63.99
2019-02-23T08:06:12.422Z,64.18
2019-02-23T08:07:12.446Z,64.18
2019-02-23T08:08:12.459Z,64.18
2019-02-23T08:09:12.730Z,64.18
2019-02-23T08:10:12.524Z,63.99
2019-02-23T08:11:12.768Z,64.08
2019-02-23T08:12:12.534Z,64.18
2019-02-23T08:13:12.806Z,63.99
2019-02-23T08:14:12.567Z,63.51
2019-02-23T08:15:12.584Z,63.79
2019-02-23T08:16:12.857Z,63.99
2019-02-23T08:17:12.618Z,63.6
2019-02-23T08:18:12.893Z,63.7
2019-02-23T08:19:12.653Z,63.79
2019-02-23T08:20:12.927Z,63.6
2019-02-23T08:21:12.687Z,63.6
2019-02-23T08:22:12.707Z,63.6
2019-02-23T08:23:12.723Z,63.79
2019-02-23T08:24:12.743Z,63.7
2019-02-23T08:25:12.760Z,63.7
2019-02-23T08:26:13.034Z,63.7
2019-02-23T08:27:12.797Z,64.08
2019-02-23T08:28:13.068Z,63.7
2019-02-23T08:29:12.829Z,63.7
2019-02-23T08:30:12.847Z,63.79
2019-02-23T08:31:15.541Z,63.89
2019-02-23T08:32:13.157Z,63.99
2019-02-23T08:33:12.903Z,63.89
2019-02-23T08:34:13.178Z,63.89
2019-02-23T08:35:12.938Z,63.23
2019-02-23T08:36:13.210Z,64.08
2019-02-23T08:37:12.973Z,63.6
2019-02-23T08:38:12.988Z,63.23
2019-02-23T08:39:13.266Z,64.08
2019-02-23T08:40:13.284Z,63.42
2019-02-23T08:41:13.044Z,63.51
2019-02-23T08:42:13.059Z,63.51
2019-02-23T08:43:13.335Z,63.7
2019-02-23T08:44:13.104Z,63.6
2019-02-23T08:45:13.115Z,63.6
2019-02-23T08:46:13.396Z,63.54
2019-02-23T08:47:13.150Z,63.7
2019-02-23T08:48:13.168Z,63.7
2019-02-23T08:49:13.187Z,63.51
2019-02-23T08:50:13.209Z,63.7
2019-02-23T08:51:13.480Z,63.64
2019-02-23T08:52:13.240Z,63.7
2019-02-23T08:53:13.514Z,63.51
2019-02-23T08:54:13.358Z,63.51
2019-02-23T08:55:13.551Z,63.6
2019-02-23T08:56:13.567Z,63.6
2019-02-23T08:57:13.588Z,64.08
2019-02-23T08:58:13.345Z,63.51
2019-02-23T08:59:13.626Z,63.6
2019-02-23T09:00:13.379Z,63.89
2019-02-23T09:01:13.656Z,63.89
2019-02-23T09:02:13.678Z,63.89
2019-02-23T09:03:13.447Z,63.99
2019-02-23T09:04:13.502Z,63.79
2019-02-23T09:05:13.736Z,63.89
2019-02-23T09:06:13.488Z,63.99
2019-02-23T09:07:13.773Z,63.83
2019-02-23T09:08:13.782Z,63.92
2019-02-23T09:09:13.551Z,63.99
2019-02-23T09:10:13.588Z,63.92
2019-02-23T09:11:13.579Z,63.92
2019-02-23T09:12:13.600Z,64.02
2019-02-23T09:13:13.619Z,63.73
2019-02-23T09:14:13.893Z,63.83
2019-02-23T09:15:13.909Z,63.83
2019-02-23T09:16:13.928Z,63.92
2019-02-23T09:17:13.688Z,63.92
2019-02-23T09:18:13.704Z,63.64
2019-02-23T09:19:13.985Z,63.83
2019-02-23T09:20:14.005Z,63.73
2019-02-23T09:21:14.022Z,63.79
2019-02-23T09:22:13.786Z,63.73
2019-02-23T09:23:13.801Z,63.92
2019-02-23T09:24:14.129Z,63.54
2019-02-23T09:25:14.088Z,63.64
2019-02-23T09:26:13.848Z,63.64
2019-02-23T09:27:13.867Z,63.64
2019-02-23T09:28:13.891Z,63.64
2019-02-23T09:29:14.163Z,63.54
2019-02-23T09:30:14.182Z,63.64
2019-02-23T09:31:13.943Z,63.64
2019-02-23T09:32:13.957Z,63.92
2019-02-23T09:33:13.975Z,63.64
2019-02-23T09:34:13.996Z,63.64
2019-02-23T09:35:14.271Z,63.64
2019-02-23T09:36:14.296Z,63.64
2019-02-23T09:37:14.049Z,64.02
2019-02-23T09:38:14.067Z,63.83
2019-02-23T09:39:14.088Z,64.02
2019-02-23T09:40:14.374Z,63.83
2019-02-23T09:41:14.451Z,63.83
2019-02-23T09:42:14.139Z,64.11
2019-02-23T09:43:14.155Z,63.92
2019-02-23T09:44:14.182Z,63.64
2019-02-23T09:45:14.197Z,64.11
2019-02-23T09:46:14.538Z,63.73
2019-02-23T09:47:14.487Z,64.11
2019-02-23T09:48:14.515Z,63.64
2019-02-23T09:49:14.267Z,63.64
2019-02-23T09:50:14.284Z,64.11
2019-02-23T09:51:14.302Z,63.73
2019-02-23T09:52:14.575Z,64.02
2019-02-23T09:53:14.341Z,63.54
2019-02-23T09:54:14.614Z,63.83
2019-02-23T09:55:14.376Z,63.64
2019-02-23T09:56:14.393Z,64.02
2019-02-23T09:57:14.414Z,64.02
2019-02-23T09:58:14.427Z,63.73
2019-02-23T09:59:14.449Z,63.73
2019-02-23T10:00:14.722Z,64.31
2019-02-23T10:01:14.743Z,63.73
2019-02-23T10:02:14.760Z,63.73
2019-02-23T10:03:14.782Z,63.73
2019-02-23T10:04:14.537Z,64.11
2019-02-23T10:05:14.554Z,63.64
2019-02-23T10:06:14.573Z,64.11
2019-02-23T10:07:14.852Z,64.21
2019-02-23T10:08:14.866Z,64.11
2019-02-23T10:09:14.883Z,64.11
2019-02-23T10:10:14.907Z,64.21
2019-02-23T10:11:14.924Z,64.21
2019-02-23T10:12:14.684Z,64.11
2019-02-23T10:13:14.700Z,64.21
2019-02-23T10:14:14.718Z,64.11
2019-02-23T10:15:14.737Z,64.31
2019-02-23T10:16:14.756Z,64.21
2019-02-23T10:17:15.029Z,64.31
2019-02-23T10:18:15.048Z,64.02
2019-02-23T10:19:14.809Z,64.31
2019-02-23T10:20:14.830Z,64.21
2019-02-23T10:21:15.102Z,64.21
2019-02-23T10:22:15.119Z,64.21
2019-02-23T10:23:23.943Z,64.02
2019-02-23T10:24:15.159Z,64.21
2019-02-23T10:25:15.174Z,64.21
2019-02-23T10:26:15.194Z,64.21
2019-02-23T10:27:15.212Z,64.21
2019-02-23T10:28:15.230Z,63.73
2019-02-23T10:29:15.248Z,63.92
2019-02-23T10:30:15.338Z,63.54
2019-02-23T10:31:15.026Z,63.64
2019-02-23T10:32:15.302Z,63.73
2019-02-23T10:33:15.323Z,63.64
2019-02-23T10:34:15.350Z,63.83
2019-02-23T10:35:15.356Z,63.83
2019-02-23T10:36:15.377Z,63.64
2019-02-23T10:37:15.421Z,63.64
2019-02-23T10:38:15.413Z,63.54
2019-02-23T10:39:15.181Z,63.64
2019-02-23T10:40:15.449Z,63.64
2019-02-23T10:41:15.469Z,63.45
2019-02-23T10:42:15.484Z,63.54
2019-02-23T10:43:15.249Z,63.73
2019-02-23T10:44:15.270Z,63.64
2019-02-23T10:45:15.286Z,63.92
2019-02-23T10:46:15.303Z,63.73
2019-02-23T10:47:15.319Z,63.83
2019-02-23T10:48:15.597Z,63.64
2019-02-23T10:49:15.616Z,63.45
2019-02-23T10:50:15.638Z,63.83
2019-02-23T10:51:15.393Z,63.73
2019-02-23T10:52:15.670Z,63.83
2019-02-23T10:53:15.690Z,63.83
2019-02-23T10:54:15.451Z,63.64
2019-02-23T10:55:15.468Z,63.64
2019-02-23T10:56:15.745Z,63.64
2019-02-23T10:57:15.767Z,63.76
2019-02-23T10:58:15.526Z,63.83
2019-02-23T10:59:15.560Z,63.83
2019-02-23T11:00:15.558Z,63.96
2019-02-23T11:01:15.578Z,63.92
2019-02-23T11:02:15.854Z,64.11
2019-02-23T11:03:15.878Z,64.05
2019-02-23T11:04:15.685Z,63.83
2019-02-23T11:05:15.650Z,63.86
2019-02-23T11:06:15.669Z,64.05
2019-02-23T11:07:15.946Z,64.05
2019-02-23T11:08:16.049Z,64.05
2019-02-23T11:09:15.729Z,63.96
2019-02-23T11:10:16.059Z,63.48
2019-02-23T11:11:16.020Z,63.67
2019-02-23T11:12:16.119Z,63.76
2019-02-23T11:13:15.799Z,63.57
2019-02-23T11:14:16.077Z,63.86
2019-02-23T11:15:15.844Z,63.76
2019-02-23T11:16:15.857Z,63.96
2019-02-23T11:17:15.875Z,63.96
2019-02-23T11:18:16.151Z,63.57
2019-02-23T11:19:16.168Z,63.86
2019-02-23T11:20:15.930Z,63.67
2019-02-23T11:21:16.207Z,63.86
2019-02-23T11:22:15.969Z,63.29
2019-02-23T11:23:15.987Z,63.29
2019-02-23T11:24:18.304Z,63.48
2019-02-23T11:25:16.072Z,63.48
2019-02-23T11:26:16.302Z,63.57
2019-02-23T11:27:16.316Z,63.39
2019-02-23T11:28:16.084Z,63.48
2019-02-23T11:29:16.355Z,63.39
2019-02-23T11:30:16.373Z,63.57
2019-02-23T11:31:16.461Z,63.29
2019-02-23T11:32:16.410Z,63.48
2019-02-23T11:33:16.171Z,63.57
2019-02-23T11:34:16.448Z,63.48
2019-02-23T11:35:17.251Z,63.48
2019-02-23T11:36:16.488Z,63.48
2019-02-23T11:37:16.246Z,63.39
2019-02-23T11:38:16.522Z,63.57
2019-02-23T11:39:16.283Z,63.39
2019-02-23T11:40:16.304Z,63.39
2019-02-23T11:41:16.320Z,63.39
2019-02-23T11:42:16.341Z,63.48
2019-02-23T11:43:16.357Z,63.76
2019-02-23T11:44:16.375Z,63.48
2019-02-23T11:45:16.393Z,63.39
2019-02-23T11:46:16.417Z,63.39
2019-02-23T11:47:16.432Z,63.29
2019-02-23T11:48:16.450Z,63.29
2019-02-23T11:49:16.734Z,63.57
2019-02-23T11:50:16.492Z,63.48
2019-02-23T11:51:16.770Z,63.48
2019-02-23T11:52:16.530Z,63.2
2019-02-23T11:53:16.545Z,63.2
2019-02-23T11:54:16.567Z,62.91
2019-02-23T11:55:16.841Z,63.29
2019-02-23T11:56:16.636Z,63.2
2019-02-23T11:57:16.879Z,63.48
2019-02-23T11:58:16.895Z,63.39
2019-02-23T11:59:16.921Z,63.2
2019-02-23T12:00:16.683Z,63.48
2019-02-23T12:01:16.696Z,63.48
2019-02-23T12:02:16.716Z,63.48
2019-02-23T12:03:16.731Z,63.29
2019-02-23T12:04:17.035Z,63.29
2019-02-23T12:05:16.771Z,63.39
2019-02-23T12:06:16.787Z,63.39
2019-02-23T12:07:17.066Z,63.57
2019-02-23T12:08:16.825Z,63.29
2019-02-23T12:09:17.102Z,62.72
2019-02-23T12:10:16.928Z,62.81
2019-02-23T12:11:17.139Z,62.62
2019-02-23T12:12:16.900Z,62.53
2019-02-23T12:13:17.183Z,62.72
2019-02-23T12:14:16.957Z,62.53
2019-02-23T12:15:16.975Z,62.34
2019-02-23T12:16:17.236Z,62.62
2019-02-23T12:17:17.254Z,62.56
2019-02-23T12:18:17.020Z,62.56
2019-02-23T12:19:17.289Z,62.56
2019-02-23T12:20:17.062Z,62.75
2019-02-23T12:21:17.333Z,62.65
2019-02-23T12:22:17.086Z,62.72
2019-02-23T12:23:17.368Z,62.37
2019-02-23T12:24:17.124Z,62.56
2019-02-23T12:25:18.428Z,62.27
2019-02-23T12:26:17.184Z,62.27
2019-02-23T12:27:17.192Z,62.46
2019-02-23T12:28:17.460Z,62.46
2019-02-23T12:29:17.222Z,62.37
2019-02-23T12:30:17.498Z,62.56
2019-02-23T12:31:17.259Z,62.56
2019-02-23T12:32:17.534Z,62.46
2019-02-23T12:33:17.296Z,62.46
2019-02-23T12:34:17.569Z,62.46
2019-02-23T12:35:17.329Z,62.56
2019-02-23T12:36:17.607Z,62.56
2019-02-23T12:37:17.368Z,62.37
2019-02-23T12:38:17.386Z,62.56
2019-02-23T12:39:17.405Z,62.56
2019-02-23T12:40:17.424Z,62.75
2019-02-23T12:41:17.702Z,62.27
2019-02-23T12:42:17.720Z,62.27
2019-02-23T12:43:17.737Z,62.56
2019-02-23T12:44:17.498Z,62.56
2019-02-23T12:45:17.777Z,62.37
2019-02-23T12:46:17.540Z,62.56
2019-02-23T12:47:17.813Z,62.37
2019-02-23T12:48:17.574Z,62.27
2019-02-23T12:49:17.851Z,62.56
2019-02-23T12:50:17.614Z,62.37
2019-02-23T12:51:17.891Z,62.56
2019-02-23T12:52:17.650Z,62.46
2019-02-23T12:53:17.927Z,62.65
2019-02-23T12:54:19.299Z,62.56
2019-02-23T12:55:17.962Z,62.27